createdAt,value
2022-12-26T00:00:36.771Z,7.3
2022-12-26T00:01:45.274Z,7.2
2022-12-26T00:02:53.715Z,7.2
2022-12-26T00:04:02.120Z,7.2
2022-12-26T00:05:10.525Z,7.3
2022-12-26T00:06:18.867Z,7.3
2022-12-26T00:07:27.251Z,7.3
2022-12-26T00:08:35.787Z,6.9
2022-12-26T00:09:44.126Z,6.9
2022-12-26T00:10:52.497Z,6.9
2022-12-26T00:12:01.042Z,6.4
2022-12-26T00:13:37.739Z,6.4
2022-12-26T00:14:17.764Z,6.4
2022-12-26T00:15:26.315Z,5.6
2022-12-26T00:16:34.790Z,5.6
2022-12-26T00:17:43.011Z,5.6
2022-12-26T00:18:51.599Z,5.7
2022-12-26T00:19:59.957Z,5.7
2022-12-26T00:21:08.273Z,5.7
2022-12-26T00:22:16.864Z,5.2
2022-12-26T00:23:25.210Z,5.2
2022-12-26T00:24:33.550Z,5.2
2022-12-26T00:25:42.092Z,5.6
2022-12-26T00:26:50.436Z,5.6
2022-12-26T00:27:58.794Z,5.6
2022-12-26T00:29:07.350Z,5
2022-12-26T00:30:15.692Z,5
2022-12-26T00:31:24.085Z,5
2022-12-26T00:32:32.611Z,5
2022-12-26T00:33:40.975Z,5
2022-12-26T00:34:49.327Z,5
2022-12-26T00:35:57.860Z,4.9
2022-12-26T00:37:06.206Z,4.9
2022-12-26T00:38:14.535Z,4.9
2022-12-26T00:39:23.142Z,5.1
2022-12-26T00:40:31.457Z,5.1
2022-12-26T00:41:39.797Z,5.1
2022-12-26T00:42:48.344Z,4.8
2022-12-26T00:43:56.699Z,4.8
2022-12-26T00:45:05.097Z,4.8
2022-12-26T00:46:13.667Z,4.9
2022-12-26T00:47:22.007Z,4.9
2022-12-26T00:48:30.360Z,4.9
2022-12-26T00:50:11.943Z,4.6
2022-12-26T00:50:47.253Z,4.6
2022-12-26T00:51:55.618Z,4.6
2022-12-26T00:53:04.165Z,4.7
2022-12-26T00:54:12.506Z,4.7
2022-12-26T00:55:20.864Z,4.7
2022-12-26T00:56:29.419Z,4.7
2022-12-26T00:57:37.761Z,4.7
2022-12-26T00:58:46.137Z,4.7
2022-12-26T00:59:54.684Z,4.6
2022-12-26T01:01:03.188Z,4.6
2022-12-26T01:02:11.455Z,4.6
2022-12-26T01:03:20.016Z,4.8
2022-12-26T01:04:28.315Z,4.8
2022-12-26T01:05:36.643Z,4.8
2022-12-26T01:06:45.190Z,4.2
2022-12-26T01:08:20.629Z,4.2
2022-12-26T01:09:01.887Z,4.2
2022-12-26T01:10:10.428Z,4.3
2022-12-26T01:11:18.801Z,4.3
2022-12-26T01:12:27.123Z,4.3
2022-12-26T01:13:35.669Z,4.2
2022-12-26T01:14:44.055Z,4.2
2022-12-26T01:15:52.432Z,4.2
2022-12-26T01:17:00.996Z,4.2
2022-12-26T01:18:09.306Z,4.2
2022-12-26T01:19:17.672Z,4.2
2022-12-26T01:20:26.238Z,4.3
2022-12-26T01:21:34.593Z,4.3
2022-12-26T01:22:42.925Z,4.3
2022-12-26T01:23:51.471Z,4
2022-12-26T01:24:59.822Z,4
2022-12-26T01:26:14.771Z,4
2022-12-26T01:27:16.788Z,4.3
2022-12-26T01:28:25.137Z,4.3
2022-12-26T01:29:33.488Z,4.3
2022-12-26T01:30:42.041Z,3.5
2022-12-26T01:31:50.405Z,3.5
2022-12-26T01:32:58.707Z,3.5
2022-12-26T01:34:07.269Z,4
2022-12-26T01:35:15.617Z,4
2022-12-26T01:36:23.952Z,4
2022-12-26T01:37:32.517Z,3.8
2022-12-26T01:38:40.925Z,3.8
2022-12-26T01:39:49.215Z,3.8
2022-12-26T01:40:57.757Z,3.8
2022-12-26T01:42:06.120Z,3.8
2022-12-26T01:43:14.473Z,3.8
2022-12-26T01:44:23.004Z,3.9
2022-12-26T01:45:31.450Z,3.9
2022-12-26T01:46:39.725Z,3.9
2022-12-26T01:47:48.307Z,3.5
2022-12-26T01:48:56.630Z,3.5
2022-12-26T01:50:05.106Z,3.5
2022-12-26T01:51:13.526Z,3.6
2022-12-26T01:52:21.856Z,3.6
2022-12-26T01:53:30.232Z,3.6
2022-12-26T01:54:42.523Z,3.7
2022-12-26T01:55:47.174Z,3.7
2022-12-26T01:56:55.565Z,3.7
2022-12-26T01:58:04.114Z,3.5
2022-12-26T01:59:12.486Z,3.5
2022-12-26T02:00:20.826Z,3.5
2022-12-26T02:01:29.488Z,3.6
2022-12-26T02:02:37.874Z,3.6
2022-12-26T02:03:46.174Z,3.6
2022-12-26T02:04:54.720Z,3.6
2022-12-26T02:06:03.081Z,3.6
2022-12-26T02:07:11.497Z,3.6
2022-12-26T02:08:20.061Z,3.6
2022-12-26T02:09:28.440Z,3.6
2022-12-26T02:10:36.777Z,3.6
2022-12-26T02:11:45.355Z,3.6
2022-12-26T02:12:53.772Z,3.6
2022-12-26T02:14:02.102Z,3.6
2022-12-26T02:15:10.681Z,3.6
2022-12-26T02:16:19.061Z,3.6
2022-12-26T02:17:27.384Z,3.6
2022-12-26T02:18:35.990Z,3.4
2022-12-26T02:19:44.336Z,3.4
2022-12-26T02:20:52.656Z,3.4
2022-12-26T02:22:01.209Z,3.5
2022-12-26T02:23:09.552Z,3.5
2022-12-26T02:24:17.920Z,3.5
2022-12-26T02:25:26.482Z,3.7
2022-12-26T02:26:34.824Z,3.7
2022-12-26T02:27:43.196Z,3.7
2022-12-26T02:28:51.787Z,3.4
2022-12-26T02:30:00.176Z,3.4
2022-12-26T02:31:08.523Z,3.4
2022-12-26T02:32:17.157Z,3.2
2022-12-26T02:33:25.407Z,3.2
2022-12-26T02:34:33.769Z,3.2
2022-12-26T02:35:42.326Z,3.4
2022-12-26T02:36:50.681Z,3.4
2022-12-26T02:37:59.007Z,3.4
2022-12-26T02:39:42.263Z,3.6
2022-12-26T02:40:15.959Z,3.6
2022-12-26T02:41:24.323Z,3.6
2022-12-26T02:42:32.904Z,3.2
2022-12-26T02:43:41.259Z,3.2
2022-12-26T02:44:49.600Z,3.2
2022-12-26T02:45:58.228Z,3.3
2022-12-26T02:47:06.533Z,3.3
2022-12-26T02:48:14.865Z,3.3
2022-12-26T02:49:23.418Z,3.3
2022-12-26T02:50:31.748Z,3.3
2022-12-26T02:51:40.091Z,3.3
2022-12-26T02:52:48.640Z,3.1
2022-12-26T02:53:56.978Z,3.1
2022-12-26T02:55:05.335Z,3.1
2022-12-26T02:56:13.897Z,3.2
2022-12-26T02:57:22.245Z,3.2
2022-12-26T02:58:30.606Z,3.2
2022-12-26T02:59:54.730Z,2.9
2022-12-26T03:00:47.559Z,2.9
2022-12-26T03:01:56.094Z,2.9
2022-12-26T03:03:04.593Z,3.2
2022-12-26T03:04:12.798Z,3.2
2022-12-26T03:05:21.154Z,3.2
2022-12-26T03:06:29.713Z,3.6
2022-12-26T03:07:38.047Z,3.6
2022-12-26T03:08:46.440Z,3.6
2022-12-26T03:09:54.995Z,3.2
2022-12-26T03:11:03.337Z,3.2
2022-12-26T03:12:11.673Z,3.2
2022-12-26T03:13:20.227Z,3.2
2022-12-26T03:14:28.577Z,3.2
2022-12-26T03:15:36.925Z,3.2
2022-12-26T03:16:45.635Z,3.3
2022-12-26T03:17:53.884Z,3.3
2022-12-26T03:19:02.257Z,3.3
2022-12-26T03:20:10.803Z,3.2
2022-12-26T03:21:19.184Z,3.2
2022-12-26T03:22:27.532Z,3.2
2022-12-26T03:23:36.086Z,2.9
2022-12-26T03:24:44.423Z,2.9
2022-12-26T03:25:52.759Z,2.9
2022-12-26T03:27:01.316Z,3.2
2022-12-26T03:28:09.658Z,3.2
2022-12-26T03:29:19.081Z,3.2
2022-12-26T03:30:26.631Z,3
2022-12-26T03:31:34.931Z,3
2022-12-26T03:32:43.284Z,3
2022-12-26T03:33:51.903Z,3.2
2022-12-26T03:35:00.276Z,3.2
2022-12-26T03:36:08.582Z,3.2
2022-12-26T03:37:17.148Z,3.3
2022-12-26T03:38:25.487Z,3.3
2022-12-26T03:39:33.889Z,3.3
2022-12-26T03:40:42.479Z,3.3
2022-12-26T03:41:50.778Z,3.3
2022-12-26T03:42:59.141Z,3.3
2022-12-26T03:44:07.725Z,3.3
2022-12-26T03:45:16.082Z,3.3
2022-12-26T03:46:24.472Z,3.3
2022-12-26T03:47:32.987Z,3.3
2022-12-26T03:48:41.366Z,3.3
2022-12-26T03:49:49.726Z,3.3
2022-12-26T03:50:58.319Z,3.2
2022-12-26T03:52:06.692Z,3.2
2022-12-26T03:53:15.046Z,3.2
2022-12-26T03:54:23.595Z,3.2
2022-12-26T03:55:31.968Z,3.2
2022-12-26T03:56:40.318Z,3.2
2022-12-26T03:57:48.919Z,3.4
2022-12-26T03:58:57.266Z,3.4
2022-12-26T04:00:05.632Z,3.4
2022-12-26T04:01:14.287Z,3.3
2022-12-26T04:02:22.699Z,3.3
2022-12-26T04:03:30.952Z,3.3
2022-12-26T04:04:39.494Z,3.3
2022-12-26T04:05:47.882Z,3.3
2022-12-26T04:06:56.250Z,3.3
2022-12-26T04:08:04.795Z,3.4
2022-12-26T04:09:13.151Z,3.4
2022-12-26T04:10:21.505Z,3.4
2022-12-26T04:11:30.099Z,3.4
2022-12-26T04:12:38.439Z,3.4
2022-12-26T04:13:46.787Z,3.4
2022-12-26T04:14:55.357Z,3.3
2022-12-26T04:16:03.767Z,3.3
2022-12-26T04:17:12.074Z,3.3
2022-12-26T04:18:20.632Z,3
2022-12-26T04:19:29.000Z,3
2022-12-26T04:20:37.340Z,3
2022-12-26T04:21:45.911Z,3.3
2022-12-26T04:22:54.279Z,3.3
2022-12-26T04:24:02.612Z,3.3
2022-12-26T04:25:11.210Z,3
2022-12-26T04:26:19.575Z,3
2022-12-26T04:27:27.918Z,3
2022-12-26T04:28:36.501Z,3.1
2022-12-26T04:29:44.836Z,3.1
2022-12-26T04:30:53.219Z,3.1
2022-12-26T04:32:01.764Z,3.4
2022-12-26T04:33:10.109Z,3.4
2022-12-26T04:34:18.535Z,3.4
2022-12-26T04:35:27.101Z,3.7
2022-12-26T04:36:35.440Z,3.7
2022-12-26T04:37:43.829Z,3.7
2022-12-26T04:38:52.413Z,3.1
2022-12-26T04:40:00.731Z,3.1
2022-12-26T04:41:09.102Z,3.1
2022-12-26T04:42:17.632Z,3.2
2022-12-26T04:43:47.985Z,3.2
2022-12-26T04:44:34.340Z,3.2
2022-12-26T04:45:42.899Z,3
2022-12-26T04:46:51.299Z,3
2022-12-26T04:47:59.595Z,3
2022-12-26T04:49:08.163Z,3.7
2022-12-26T04:50:16.505Z,3.7
2022-12-26T04:51:24.841Z,3.7
2022-12-26T04:52:33.399Z,3
2022-12-26T04:53:41.723Z,3
2022-12-26T04:54:51.737Z,3
2022-12-26T04:55:58.641Z,3.4
2022-12-26T04:57:06.990Z,3.4
2022-12-26T04:58:15.323Z,3.4
2022-12-26T04:59:23.881Z,3.4
2022-12-26T05:00:32.229Z,3.4
2022-12-26T05:01:40.698Z,3.4
2022-12-26T05:02:49.254Z,3.6
2022-12-26T05:03:57.551Z,3.6
2022-12-26T05:05:05.898Z,3.6
2022-12-26T05:06:14.458Z,3.7
2022-12-26T05:07:22.852Z,3.7
2022-12-26T05:08:31.186Z,3.7
2022-12-26T05:09:39.798Z,3.1
2022-12-26T05:10:48.117Z,3.1
2022-12-26T05:11:56.432Z,3.1
2022-12-26T05:13:04.987Z,3.4
2022-12-26T05:14:13.357Z,3.4
2022-12-26T05:15:21.742Z,3.4
2022-12-26T05:16:30.362Z,3.2
2022-12-26T05:17:38.719Z,3.2
2022-12-26T05:18:46.975Z,3.2
2022-12-26T05:19:55.517Z,3.6
2022-12-26T05:21:03.875Z,3.6
2022-12-26T05:22:12.273Z,3.6
2022-12-26T05:23:20.839Z,3.2
2022-12-26T05:24:29.194Z,3.2
2022-12-26T05:25:37.529Z,3.2
2022-12-26T05:26:46.092Z,3.7
2022-12-26T05:27:54.434Z,3.7
2022-12-26T05:29:02.789Z,3.7
2022-12-26T05:30:11.360Z,3.1
2022-12-26T05:31:19.774Z,3.1
2022-12-26T05:32:28.057Z,3.1
2022-12-26T05:33:36.651Z,3.6
2022-12-26T05:34:44.998Z,3.6
2022-12-26T05:35:53.368Z,3.6
2022-12-26T05:37:01.904Z,3.4
2022-12-26T05:38:10.282Z,3.4
2022-12-26T05:39:18.625Z,3.4
2022-12-26T05:40:27.186Z,3.2
2022-12-26T05:41:35.588Z,3.2
2022-12-26T05:42:43.921Z,3.2
2022-12-26T05:43:52.453Z,3.9
2022-12-26T05:45:00.798Z,3.9
2022-12-26T05:46:09.168Z,3.9
2022-12-26T05:47:17.705Z,3.6
2022-12-26T05:48:26.055Z,3.6
2022-12-26T05:49:34.393Z,3.6
2022-12-26T05:50:42.948Z,3.6
2022-12-26T05:51:51.290Z,3.6
2022-12-26T05:52:59.669Z,3.6
2022-12-26T05:54:08.199Z,3.5
2022-12-26T05:55:16.535Z,3.5
2022-12-26T05:56:24.904Z,3.5
2022-12-26T05:57:33.441Z,3.2
2022-12-26T05:58:41.831Z,3.2
2022-12-26T05:59:50.164Z,3.2
2022-12-26T06:00:58.732Z,3.5
2022-12-26T06:02:07.190Z,3.5
2022-12-26T06:03:15.562Z,3.5
2022-12-26T06:04:24.020Z,3.4
2022-12-26T06:05:32.349Z,3.4
2022-12-26T06:06:40.715Z,3.4
2022-12-26T06:07:49.287Z,3.3
2022-12-26T06:08:57.640Z,3.3
2022-12-26T06:10:06.019Z,3.3
2022-12-26T06:11:14.578Z,2.7
2022-12-26T06:12:22.927Z,2.7
2022-12-26T06:13:31.280Z,2.7
2022-12-26T06:14:39.851Z,3.1
2022-12-26T06:15:48.195Z,3.1
2022-12-26T06:16:56.545Z,3.1
2022-12-26T06:18:05.112Z,3.2
2022-12-26T06:19:13.469Z,3.2
2022-12-26T06:20:21.816Z,3.2
2022-12-26T06:21:30.379Z,3.1
2022-12-26T06:22:38.693Z,3.1
2022-12-26T06:23:47.108Z,3.1
2022-12-26T06:24:55.638Z,3.7
2022-12-26T06:26:04.017Z,3.7
2022-12-26T06:27:12.346Z,3.7
2022-12-26T06:28:20.948Z,3.1
2022-12-26T06:29:29.309Z,3.1
2022-12-26T06:30:37.700Z,3.1
2022-12-26T06:31:46.292Z,3.1
2022-12-26T06:32:54.596Z,3.1
2022-12-26T06:34:02.956Z,3.1
2022-12-26T06:35:11.510Z,3.6
2022-12-26T06:36:19.845Z,3.6
2022-12-26T06:37:28.215Z,3.6
2022-12-26T06:38:36.752Z,3.5
2022-12-26T06:39:45.108Z,3.5
2022-12-26T06:40:53.450Z,3.5
2022-12-26T06:42:02.007Z,3.8
2022-12-26T06:43:10.354Z,3.8
2022-12-26T06:44:18.984Z,3.8
2022-12-26T06:45:27.286Z,3
2022-12-26T06:46:35.780Z,3
2022-12-26T06:47:44.046Z,3
2022-12-26T06:48:52.650Z,3.1
2022-12-26T06:50:00.974Z,3.1
2022-12-26T06:51:09.331Z,3.1
2022-12-26T06:52:17.889Z,3.3
2022-12-26T06:53:26.269Z,3.3
2022-12-26T06:54:34.639Z,3.3
2022-12-26T06:55:43.215Z,3.1
2022-12-26T06:56:51.568Z,3.1
2022-12-26T06:57:59.942Z,3.1
2022-12-26T06:59:08.561Z,3.2
2022-12-26T07:00:16.871Z,3.2
2022-12-26T07:01:25.336Z,3.2
2022-12-26T07:02:33.883Z,3.1
2022-12-26T07:03:48.713Z,3.1
2022-12-26T07:04:50.570Z,3.1
2022-12-26T07:05:59.186Z,3.4
2022-12-26T07:07:07.547Z,3.4
2022-12-26T07:08:15.913Z,3.4
2022-12-26T07:09:28.455Z,18.200001
2022-12-26T07:10:32.821Z,18.200001
2022-12-26T07:11:41.165Z,18.200001
2022-12-26T07:12:49.730Z,11
2022-12-26T07:13:58.122Z,11
2022-12-26T07:15:06.464Z,11
2022-12-26T07:16:15.067Z,3.8
2022-12-26T07:17:23.361Z,3.8
2022-12-26T07:18:31.745Z,3.8
2022-12-26T07:19:40.281Z,8.6
2022-12-26T07:20:48.631Z,8.6
2022-12-26T07:21:56.984Z,8.6
2022-12-26T07:23:05.549Z,9.1
2022-12-26T07:24:13.964Z,9.1
2022-12-26T07:25:22.313Z,9.1
2022-12-26T07:26:30.869Z,40.200001
2022-12-26T07:27:39.214Z,40.200001
2022-12-26T07:28:47.585Z,40.200001
2022-12-26T07:29:56.144Z,5
2022-12-26T07:31:04.521Z,5
2022-12-26T07:32:12.905Z,5
2022-12-26T07:33:21.404Z,10
2022-12-26T07:34:31.553Z,10
2022-12-26T07:35:38.140Z,10
2022-12-26T07:36:46.726Z,3.1
2022-12-26T07:37:55.081Z,3.1
2022-12-26T07:39:03.446Z,3.1
2022-12-26T07:40:12.031Z,4.5
2022-12-26T07:41:20.410Z,4.5
2022-12-26T07:42:28.748Z,4.5
2022-12-26T07:43:37.324Z,6.8
2022-12-26T07:44:45.687Z,6.8
2022-12-26T07:45:54.056Z,6.8
2022-12-26T07:47:02.656Z,4.3
2022-12-26T07:48:11.005Z,4.3
2022-12-26T07:49:19.532Z,4.3
2022-12-26T07:50:28.184Z,5.1
2022-12-26T07:51:36.446Z,5.1
2022-12-26T07:52:44.796Z,5.1
2022-12-26T07:53:53.497Z,3.4
2022-12-26T07:55:01.831Z,3.4
2022-12-26T07:56:10.227Z,3.4
2022-12-26T07:58:27.162Z,3
2022-12-26T07:59:35.518Z,3
2022-12-26T08:00:44.142Z,3.7
2022-12-26T08:01:52.561Z,3.7
2022-12-26T08:03:06.726Z,3.7
2022-12-26T08:04:09.429Z,3.3
2022-12-26T08:05:17.786Z,3.3
2022-12-26T08:06:26.158Z,3.3
2022-12-26T08:07:34.680Z,3.1
2022-12-26T08:08:48.667Z,3.1
2022-12-26T08:09:51.390Z,3.1
2022-12-26T08:10:59.949Z,2.8
2022-12-26T08:12:08.288Z,2.8
2022-12-26T08:13:16.626Z,2.8
2022-12-26T08:14:25.304Z,3.2
2022-12-26T08:15:33.654Z,3.2
2022-12-26T08:16:42.078Z,3.2
2022-12-26T08:17:50.658Z,3.1
2022-12-26T08:18:59.012Z,3.1
2022-12-26T08:20:07.352Z,3.1
2022-12-26T08:21:15.905Z,3.4
2022-12-26T08:22:24.271Z,3.4
2022-12-26T08:23:32.590Z,3.4
2022-12-26T08:24:41.145Z,3.1
2022-12-26T08:25:49.501Z,3.1
2022-12-26T08:26:57.829Z,3.1
2022-12-26T08:28:06.384Z,3.1
2022-12-26T08:29:14.743Z,3.1
2022-12-26T08:30:23.078Z,3.1
2022-12-26T08:31:31.636Z,3
2022-12-26T08:32:41.054Z,3
2022-12-26T08:33:48.420Z,3
2022-12-26T08:34:57.085Z,3.2
2022-12-26T08:36:05.437Z,3.2
2022-12-26T08:37:13.782Z,3.2
2022-12-26T08:38:22.355Z,3.2
2022-12-26T08:39:30.723Z,3.2
2022-12-26T08:40:43.429Z,3.2
2022-12-26T08:41:47.721Z,3.7
2022-12-26T08:43:11.927Z,3.7
2022-12-26T08:45:13.706Z,3.2
2022-12-26T08:46:22.168Z,3.2
2022-12-26T08:47:30.468Z,3.2
2022-12-26T08:48:39.058Z,3.1
2022-12-26T08:49:47.399Z,3.1
2022-12-26T08:50:55.770Z,3.1
2022-12-26T08:52:04.435Z,3.2
2022-12-26T08:53:12.753Z,3.2
2022-12-26T08:54:21.337Z,3.2
2022-12-26T08:55:29.870Z,3.1
2022-12-26T08:56:38.214Z,3.1
2022-12-26T08:57:46.562Z,3.1
2022-12-26T08:58:55.180Z,3.4
2022-12-26T09:00:03.529Z,3.4
2022-12-26T09:01:11.989Z,3.4
2022-12-26T09:02:20.689Z,4.4
2022-12-26T09:03:28.919Z,4.4
2022-12-26T09:04:37.232Z,4.4
2022-12-26T09:05:45.797Z,3.7
2022-12-26T09:06:54.146Z,3.7
2022-12-26T09:08:02.520Z,3.7
2022-12-26T09:09:11.105Z,2.9
2022-12-26T09:10:19.495Z,2.9
2022-12-26T09:11:27.850Z,2.9
2022-12-26T09:12:36.379Z,3.6
2022-12-26T09:13:44.731Z,3.6
2022-12-26T09:14:53.083Z,3.6
2022-12-26T09:16:01.679Z,2.7
2022-12-26T09:17:10.087Z,2.7
2022-12-26T09:18:18.432Z,2.7
2022-12-26T09:19:27.018Z,3.1
2022-12-26T09:20:35.351Z,3.1
2022-12-26T09:21:43.701Z,3.1
2022-12-26T09:22:52.272Z,4.8
2022-12-26T09:24:00.665Z,4.8
2022-12-26T09:25:09.020Z,4.8
2022-12-26T09:26:17.589Z,6.8
2022-12-26T09:27:25.947Z,6.8
2022-12-26T09:28:34.393Z,6.8
2022-12-26T09:29:42.987Z,4
2022-12-26T09:30:51.341Z,4
2022-12-26T09:31:59.687Z,4
2022-12-26T09:33:08.256Z,3.7
2022-12-26T09:34:16.620Z,3.7
2022-12-26T09:35:24.984Z,3.7
2022-12-26T09:36:33.572Z,4
2022-12-26T09:37:41.940Z,4
2022-12-26T09:38:50.296Z,4
2022-12-26T09:39:58.882Z,40.099998
2022-12-26T09:41:07.292Z,40.099998
2022-12-26T09:42:15.660Z,40.099998
2022-12-26T09:43:24.186Z,6.5
2022-12-26T09:44:32.522Z,6.5
2022-12-26T09:45:40.864Z,6.5
2022-12-26T09:46:49.398Z,14.6
2022-12-26T09:47:57.718Z,14.6
2022-12-26T09:49:06.069Z,14.6
2022-12-26T09:50:14.629Z,5.2
2022-12-26T09:51:22.952Z,5.2
2022-12-26T09:52:31.270Z,5.2
2022-12-26T09:53:39.796Z,6.4
2022-12-26T09:54:48.161Z,6.4
2022-12-26T09:55:56.495Z,6.4
2022-12-26T09:57:08.631Z,73.699997
2022-12-26T09:58:13.402Z,73.699997
2022-12-26T09:59:21.686Z,73.699997
2022-12-26T10:00:30.248Z,11.4
2022-12-26T10:01:38.680Z,11.4
2022-12-26T10:02:46.999Z,11.4
2022-12-26T10:03:55.457Z,3.7
2022-12-26T10:05:03.818Z,3.7
2022-12-26T10:06:12.104Z,3.7
2022-12-26T10:07:20.654Z,5.2
2022-12-26T10:08:28.992Z,5.2
2022-12-26T10:09:37.319Z,5.2
2022-12-26T10:10:45.913Z,5.1
2022-12-26T10:11:54.227Z,5.1
2022-12-26T10:13:02.568Z,5.1
2022-12-26T10:14:13.057Z,26.799999
2022-12-26T10:15:19.423Z,26.799999
2022-12-26T10:16:27.739Z,26.799999
2022-12-26T10:17:36.289Z,5.4
2022-12-26T10:18:44.605Z,5.4
2022-12-26T10:19:52.930Z,5.4
2022-12-26T10:21:01.463Z,5
2022-12-26T10:22:09.798Z,5
2022-12-26T10:23:18.159Z,5
2022-12-26T10:24:26.705Z,8.1
2022-12-26T10:25:35.063Z,8.1
2022-12-26T10:26:43.395Z,8.1
2022-12-26T10:27:51.920Z,8.9
2022-12-26T10:29:00.258Z,8.9
2022-12-26T10:30:08.603Z,8.9
2022-12-26T10:31:17.150Z,3.3
2022-12-26T10:32:27.972Z,3.3
2022-12-26T10:33:33.771Z,3.3
2022-12-26T10:34:42.309Z,3.5
2022-12-26T10:35:50.657Z,3.5
2022-12-26T10:36:58.978Z,3.5
2022-12-26T10:38:07.534Z,3
2022-12-26T10:39:15.866Z,3
2022-12-26T10:40:24.208Z,3
2022-12-26T10:41:32.765Z,3.8
2022-12-26T10:42:41.107Z,3.8
2022-12-26T10:43:49.440Z,3.8
2022-12-26T10:44:57.991Z,3.5
2022-12-26T10:46:06.394Z,3.5
2022-12-26T10:47:14.681Z,3.5
2022-12-26T10:48:23.232Z,3.1
2022-12-26T10:49:31.568Z,3.1
2022-12-26T10:50:39.897Z,3.1
2022-12-26T10:51:48.435Z,4.2
2022-12-26T10:52:56.774Z,4.2
2022-12-26T10:54:05.123Z,4.2
2022-12-26T10:55:27.671Z,3.7
2022-12-26T10:56:22.005Z,3.7
2022-12-26T10:57:30.352Z,3.7
2022-12-26T10:58:38.882Z,3.9
2022-12-26T10:59:47.274Z,3.9
2022-12-26T11:00:55.557Z,3.9
2022-12-26T11:02:06.975Z,4.7
2022-12-26T11:03:12.530Z,4.7
2022-12-26T11:06:37.615Z,5.3
2022-12-26T11:07:45.937Z,5.3
2022-12-26T11:08:54.518Z,5.6
2022-12-26T11:10:02.835Z,5.6
2022-12-26T11:11:11.161Z,5.6
2022-12-26T11:12:19.703Z,3.5
2022-12-26T11:13:28.030Z,3.5
2022-12-26T11:14:36.383Z,3.5
2022-12-26T11:15:44.906Z,3.5
2022-12-26T11:16:53.231Z,3.5
2022-12-26T11:18:01.594Z,3.5
2022-12-26T11:19:10.096Z,3.3
2022-12-26T11:20:18.529Z,3.3
2022-12-26T11:21:26.768Z,3.3
2022-12-26T11:22:35.289Z,2.8
2022-12-26T11:23:43.600Z,2.8
2022-12-26T11:24:51.924Z,2.8
2022-12-26T11:26:00.472Z,2.9
2022-12-26T11:27:12.675Z,2.9
2022-12-26T11:28:17.129Z,2.9
2022-12-26T11:29:25.669Z,3.3
2022-12-26T11:30:34.024Z,3.3
2022-12-26T11:31:42.346Z,3.3
2022-12-26T11:32:50.861Z,2.4
2022-12-26T11:33:59.253Z,2.4
2022-12-26T11:35:07.537Z,2.4
2022-12-26T11:36:16.088Z,2.7
2022-12-26T11:37:24.393Z,2.7
2022-12-26T11:38:32.707Z,2.7
2022-12-26T11:39:41.252Z,3
2022-12-26T11:40:49.580Z,3
2022-12-26T11:41:57.895Z,3
2022-12-26T11:43:06.425Z,3.1
2022-12-26T11:44:14.825Z,3.1
2022-12-26T11:45:23.076Z,3.1
2022-12-26T11:46:31.777Z,2.9
2022-12-26T11:47:39.953Z,2.9
2022-12-26T11:48:48.287Z,2.9
2022-12-26T11:49:56.821Z,2.3
2022-12-26T11:51:05.124Z,2.3
2022-12-26T11:52:13.455Z,2.3
2022-12-26T11:53:21.990Z,3.2
2022-12-26T11:54:30.321Z,3.2
2022-12-26T11:55:38.637Z,3.2
2022-12-26T11:56:47.165Z,2.7
2022-12-26T11:57:58.560Z,2.7
2022-12-26T11:59:03.815Z,2.7
2022-12-26T12:00:12.332Z,2.4
2022-12-26T12:01:20.676Z,2.4
2022-12-26T12:02:29.108Z,2.4
2022-12-26T12:03:37.560Z,2.9
2022-12-26T12:04:45.872Z,2.9
2022-12-26T12:05:54.219Z,2.9
2022-12-26T12:07:02.716Z,2.4
2022-12-26T12:08:11.041Z,2.4
2022-12-26T12:09:19.391Z,2.4
2022-12-26T12:10:27.923Z,3.1
2022-12-26T12:11:36.237Z,3.1
2022-12-26T12:12:44.558Z,3.1
2022-12-26T12:13:53.103Z,3.3
2022-12-26T12:15:01.447Z,3.3
2022-12-26T12:16:09.807Z,3.3
2022-12-26T12:17:18.306Z,2.6
2022-12-26T12:18:26.624Z,2.6
2022-12-26T12:19:34.942Z,2.6
2022-12-26T12:20:46.277Z,2.4
2022-12-26T12:21:51.894Z,2.4
2022-12-26T12:23:00.158Z,2.4
2022-12-26T12:24:08.695Z,2.4
2022-12-26T12:25:17.015Z,2.4
2022-12-26T12:26:25.358Z,2.4
2022-12-26T12:27:33.861Z,2.5
2022-12-26T12:28:42.192Z,2.5
2022-12-26T12:29:50.514Z,2.5
2022-12-26T12:30:59.046Z,3.4
2022-12-26T12:32:07.520Z,3.4
2022-12-26T12:33:15.714Z,3.4
2022-12-26T12:34:24.257Z,2.5
2022-12-26T12:35:32.566Z,2.5
2022-12-26T12:36:40.890Z,2.5
2022-12-26T12:37:49.456Z,3
2022-12-26T12:38:57.734Z,3
2022-12-26T12:40:06.072Z,3
2022-12-26T12:41:14.586Z,2.6
2022-12-26T12:42:22.901Z,2.6
2022-12-26T12:43:31.240Z,2.6
2022-12-26T12:44:39.784Z,2.1
2022-12-26T12:45:48.161Z,2.1
2022-12-26T12:46:56.443Z,2.1
2022-12-26T12:48:04.983Z,2.2
2022-12-26T12:49:13.312Z,2.2
2022-12-26T12:50:21.634Z,2.2
2022-12-26T12:51:30.170Z,2
2022-12-26T12:52:38.486Z,2
2022-12-26T12:53:46.822Z,2
2022-12-26T12:54:55.340Z,1.9
2022-12-26T12:56:03.663Z,1.9
2022-12-26T12:57:12.006Z,1.9
2022-12-26T12:58:20.520Z,1.9
2022-12-26T12:59:28.852Z,1.9
2022-12-26T13:00:37.197Z,1.9
2022-12-26T13:01:45.850Z,1.9
2022-12-26T13:02:54.109Z,1.9
2022-12-26T13:04:02.365Z,1.9
2022-12-26T13:05:10.899Z,1.8
2022-12-26T13:06:19.216Z,1.8
2022-12-26T13:07:27.533Z,1.8
2022-12-26T13:08:36.086Z,1.9
2022-12-26T13:09:44.431Z,1.9
2022-12-26T13:10:52.724Z,1.9
2022-12-26T13:12:01.256Z,2.1
2022-12-26T13:13:09.584Z,2.1
2022-12-26T13:14:17.919Z,2.1
2022-12-26T13:15:26.445Z,2
2022-12-26T13:16:34.793Z,2
2022-12-26T13:17:43.073Z,2
2022-12-26T13:18:51.582Z,2
2022-12-26T13:20:02.120Z,2
2022-12-26T13:21:08.237Z,2
2022-12-26T13:22:16.773Z,2
2022-12-26T13:23:25.088Z,2
2022-12-26T13:24:33.421Z,2
2022-12-26T13:25:41.981Z,2.3
2022-12-26T13:26:50.273Z,2.3
2022-12-26T13:27:58.602Z,2.3
2022-12-26T13:29:07.138Z,2.5
2022-12-26T13:30:15.472Z,2.5
2022-12-26T13:31:23.827Z,2.5
2022-12-26T13:32:32.327Z,4.6
2022-12-26T13:33:40.640Z,4.6
2022-12-26T13:34:48.969Z,4.6
2022-12-26T13:35:57.499Z,2.6
2022-12-26T13:37:05.820Z,2.6
2022-12-26T13:38:14.152Z,2.6
2022-12-26T13:39:22.716Z,4.4
2022-12-26T13:40:31.026Z,4.4
2022-12-26T13:41:39.428Z,4.4
2022-12-26T13:42:47.895Z,4.5
2022-12-26T13:43:56.243Z,4.5
2022-12-26T13:45:04.551Z,4.5
2022-12-26T13:46:13.104Z,2.3
2022-12-26T13:47:21.403Z,2.3
2022-12-26T13:48:29.753Z,2.3
2022-12-26T13:49:38.272Z,2.8
2022-12-26T13:50:49.863Z,2.8
2022-12-26T13:51:54.900Z,2.8
2022-12-26T13:53:03.418Z,3
2022-12-26T13:54:11.752Z,3
2022-12-26T13:55:20.073Z,3
2022-12-26T13:56:28.593Z,3.4
2022-12-26T13:57:36.948Z,3.4
2022-12-26T13:58:45.241Z,3.4
2022-12-26T13:59:53.772Z,3.3
2022-12-26T14:01:02.137Z,3.3
2022-12-26T14:02:14.676Z,3.3
2022-12-26T14:03:20.399Z,3.4
2022-12-26T14:04:27.351Z,3.4
2022-12-26T14:05:35.627Z,3.4
2022-12-26T14:06:44.171Z,2.1
2022-12-26T14:07:52.489Z,2.1
2022-12-26T14:09:00.818Z,2.1
2022-12-26T14:10:09.360Z,1.5
2022-12-26T14:11:17.683Z,1.5
2022-12-26T14:12:26.005Z,1.5
2022-12-26T14:13:34.560Z,1.9
2022-12-26T14:14:43.423Z,1.9
2022-12-26T14:15:51.744Z,1.9
2022-12-26T14:17:00.334Z,1.8
2022-12-26T14:18:08.626Z,1.8
2022-12-26T14:19:16.973Z,1.8
2022-12-26T14:20:25.493Z,2.6
2022-12-26T14:21:33.829Z,2.6
2022-12-26T14:22:42.125Z,2.6
2022-12-26T14:23:50.657Z,6.4
2022-12-26T14:24:59.023Z,6.4
2022-12-26T14:26:07.322Z,6.4
2022-12-26T14:27:15.843Z,3
2022-12-26T14:28:24.148Z,3
2022-12-26T14:29:32.509Z,3
2022-12-26T15:03:09.448Z,0
2022-12-26T15:04:17.756Z,0
2022-12-26T15:05:44.231Z,0
2022-12-26T15:07:15.417Z,3
2022-12-26T15:08:19.935Z,3
2022-12-26T15:09:28.261Z,3
2022-12-26T15:10:36.786Z,2.5
2022-12-26T15:11:45.102Z,2.5
2022-12-26T15:12:58.694Z,2.5
2022-12-26T15:14:02.005Z,2.3
2022-12-26T15:15:11.043Z,2.3
2022-12-26T15:16:19.440Z,2.3
2022-12-26T15:17:27.883Z,22.5
2022-12-26T15:18:41.197Z,22.5
2022-12-26T15:19:44.702Z,22.5
2022-12-26T15:20:53.246Z,2.1
2022-12-26T15:22:01.609Z,2.1
2022-12-26T15:23:09.991Z,2.1
2022-12-26T15:24:18.571Z,3
2022-12-26T15:25:26.923Z,3
2022-12-26T15:26:35.300Z,3
2022-12-26T15:27:43.843Z,4.8
2022-12-26T15:28:52.171Z,4.8
2022-12-26T15:30:00.516Z,4.8
2022-12-26T15:31:09.199Z,3.4
2022-12-26T15:32:17.514Z,3.4
2022-12-26T15:33:25.871Z,3.4
2022-12-26T15:34:34.462Z,10.2
2022-12-26T15:35:42.763Z,10.2
2022-12-26T15:36:51.124Z,10.2
2022-12-26T15:37:59.699Z,2.3
2022-12-26T15:39:08.054Z,2.3
2022-12-26T15:40:16.421Z,2.3
2022-12-26T15:41:24.999Z,3.7
2022-12-26T15:42:33.348Z,3.7
2022-12-26T15:43:41.710Z,3.7
2022-12-26T15:44:50.316Z,3.9
2022-12-26T15:45:58.669Z,3.9
2022-12-26T15:47:07.014Z,3.9
2022-12-26T15:48:15.595Z,3.1
2022-12-26T15:49:23.948Z,3.1
2022-12-26T15:50:32.312Z,3.1
2022-12-26T15:51:40.843Z,3.4
2022-12-26T15:52:49.179Z,3.4
2022-12-26T15:53:57.517Z,3.4
2022-12-26T15:55:06.073Z,18.799999
2022-12-26T15:56:14.395Z,18.799999
2022-12-26T15:57:22.740Z,18.799999
2022-12-26T15:58:31.268Z,2.2
2022-12-26T15:59:39.605Z,2.2
2022-12-26T16:00:47.935Z,2.2
2022-12-26T16:01:56.714Z,4.2
2022-12-26T16:03:04.992Z,4.2
2022-12-26T16:04:13.542Z,4.2
2022-12-26T16:05:22.158Z,3
2022-12-26T16:06:30.572Z,3
2022-12-26T16:07:38.881Z,3
2022-12-26T16:08:47.438Z,3.1
2022-12-26T16:09:55.940Z,3.1
2022-12-26T16:11:04.598Z,3.1
2022-12-26T16:12:13.162Z,4.3
2022-12-26T16:13:21.497Z,4.3
2022-12-26T16:14:30.132Z,4.3
2022-12-26T16:15:38.738Z,2.9
2022-12-26T16:16:47.069Z,2.9
2022-12-26T16:17:55.412Z,2.9
2022-12-26T16:19:03.964Z,5.5
2022-12-26T16:20:17.057Z,5.5
2022-12-26T16:21:20.637Z,5.5
2022-12-26T16:22:29.220Z,1.2